createdAt,value
2022-11-13T00:00:24.449Z,101790.47
2022-11-13T00:03:10.637Z,101777.47
2022-11-13T00:06:02.166Z,101780.28
2022-11-13T00:08:49.165Z,101775.13
2022-11-13T00:11:35.607Z,101777.84
2022-11-13T00:14:21.842Z,101776.25
2022-11-13T00:17:08.084Z,101770.34
2022-11-13T00:19:54.168Z,101773.06
2022-11-13T00:22:42.467Z,101769.72
2022-11-13T00:25:29.086Z,101764.63
2022-11-13T00:28:15.719Z,101763.03
2022-11-13T00:31:03.235Z,101767.44
2022-11-13T00:36:56.106Z,101759.84
2022-11-13T00:39:43.425Z,101764.34
2022-11-13T00:42:29.407Z,101759.19
2022-11-13T00:45:15.897Z,101754.91
2022-11-13T00:48:02.283Z,101755.00
2022-11-13T00:50:48.928Z,101756.84
2022-11-13T00:53:35.178Z,101757.69
2022-11-13T00:56:22.714Z,101751.69
2022-11-13T00:59:09.154Z,101758.63
2022-11-13T01:01:56.804Z,101749.16
2022-11-13T01:04:43.559Z,101747.50
2022-11-13T01:07:29.781Z,101750.22
2022-11-13T01:10:16.549Z,101753.59
2022-11-13T01:13:03.990Z,101744.03
2022-11-13T01:15:50.098Z,101742.28
2022-11-13T01:18:36.443Z,101744.03
2022-11-13T01:21:24.393Z,101741.31
2022-11-13T01:24:10.824Z,101753.47
2022-11-13T01:26:57.090Z,101747.38
2022-11-13T01:29:44.697Z,101743.94
2022-11-13T01:32:31.012Z,101744.69
2022-11-13T01:35:17.163Z,101738.59
2022-11-13T01:38:03.431Z,101738.69
2022-11-13T01:40:49.453Z,101736.06
2022-11-13T01:43:38.784Z,101739.53
2022-11-13T01:46:32.315Z,101731.69
2022-11-13T01:49:29.231Z,101736.00
2022-11-13T01:52:18.720Z,101729.91
2022-11-13T01:55:09.642Z,101730.97
2022-11-13T01:57:56.259Z,101732.72
2022-11-13T02:00:42.382Z,101719.72
2022-11-13T02:03:29.901Z,101716.28
2022-11-13T02:06:16.392Z,101723.28
2022-11-13T02:09:03.221Z,101725.06
2022-11-13T02:11:50.029Z,101713.81
2022-11-13T02:14:39.459Z,101708.59
2022-11-13T02:17:31.255Z,101708.69
2022-11-13T02:20:22.179Z,101705.31
2022-11-13T02:23:14.589Z,101696.72
2022-11-13T02:26:02.948Z,101709.03
2022-11-13T02:28:49.303Z,101698.69
2022-11-13T02:31:35.378Z,101703.16
2022-11-13T02:34:21.753Z,101699.69
2022-11-13T02:37:07.854Z,101700.63
2022-11-13T02:39:54.073Z,101698.09
2022-11-13T02:42:41.658Z,101697.38
2022-11-13T02:45:27.793Z,101694.75
2022-11-13T02:48:14.026Z,101691.38
2022-11-13T02:51:00.269Z,101692.31
2022-11-13T02:53:46.649Z,101688.84
2022-11-13T02:56:32.795Z,101683.69
2022-11-13T02:59:20.249Z,101689.00
2022-11-13T03:02:06.693Z,101690.91
2022-11-13T03:08:00.030Z,101684.06
2022-11-13T03:10:46.319Z,101676.28
2022-11-13T03:13:32.485Z,101672.94
2022-11-13T03:16:20.105Z,101681.72
2022-11-13T03:19:06.426Z,101669.50
2022-11-13T03:21:52.711Z,101673.03
2022-11-13T03:24:39.203Z,101671.34
2022-11-13T03:27:25.284Z,101669.66
2022-11-13T03:30:12.790Z,101671.44
2022-11-13T03:33:00.343Z,101673.28
2022-11-13T03:35:47.190Z,101669.75
2022-11-13T03:38:33.922Z,101664.50
2022-11-13T03:41:20.417Z,101667.22
2022-11-13T03:44:06.549Z,101656.03
2022-11-13T03:46:52.967Z,101654.50
2022-11-13T03:49:40.531Z,101654.56
2022-11-13T03:52:26.797Z,101658.31
2022-11-13T03:55:12.941Z,101655.97
2022-11-13T03:57:59.503Z,101657.00
2022-11-13T04:00:46.273Z,101644.94
2022-11-13T04:03:32.709Z,101644.28
2022-11-13T04:06:21.855Z,101638.47
2022-11-13T04:09:08.137Z,101634.34
2022-11-13T04:11:54.226Z,101632.75
2022-11-13T04:14:40.433Z,101629.47
2022-11-13T04:17:26.677Z,101626.19
2022-11-13T04:20:13.595Z,101627.22
2022-11-13T04:23:01.227Z,101625.63
2022-11-13T04:25:49.618Z,101623.28
2022-11-13T04:28:35.965Z,101617.38
2022-11-13T04:31:22.326Z,101618.47
2022-11-13T04:34:09.581Z,101611.66
2022-11-13T04:36:55.777Z,101616.94
2022-11-13T04:39:43.350Z,101617.22
2022-11-13T04:42:46.999Z,101616.47
2022-11-13T04:45:33.400Z,101620.06
2022-11-13T04:48:19.470Z,101606.38
2022-11-13T04:51:06.220Z,101607.22
2022-11-13T04:53:52.446Z,101604.84
2022-11-13T04:56:39.979Z,101606.78
2022-11-13T04:59:26.267Z,101601.66
2022-11-13T05:02:12.722Z,101594.00
2022-11-13T05:05:04.365Z,101599.47
2022-11-13T05:07:51.493Z,101597.88
2022-11-13T05:10:37.918Z,101596.19
2022-11-13T05:13:25.742Z,101581.53
2022-11-13T05:16:14.178Z,101576.47
2022-11-13T05:19:00.407Z,101575.72
2022-11-13T05:21:46.639Z,101566.22
2022-11-13T05:24:32.805Z,101571.44
2022-11-13T05:27:18.953Z,101575.06
2022-11-13T05:30:08.178Z,101570.84
2022-11-13T05:32:54.258Z,101567.47
2022-11-13T05:35:40.309Z,101566.63
2022-11-13T05:38:26.829Z,101572.78
2022-11-13T05:41:15.934Z,101565.94
2022-11-13T05:44:02.342Z,101563.44
2022-11-13T05:46:49.880Z,101560.91
2022-11-13T05:49:36.034Z,101560.16
2022-11-13T05:52:22.305Z,101559.38
2022-11-13T05:55:08.951Z,101566.47
2022-11-13T05:57:55.455Z,101565.63
2022-11-13T06:00:41.459Z,101559.56
2022-11-13T06:03:29.004Z,101560.50
2022-11-13T06:06:18.074Z,101553.59
2022-11-13T06:09:06.688Z,101552.75
2022-11-13T06:11:52.980Z,101551.13
2022-11-13T06:14:39.150Z,101546.88
2022-11-13T06:17:25.255Z,101545.91
2022-11-13T06:20:13.082Z,101547.69
2022-11-13T06:22:59.353Z,101544.25
2022-11-13T06:25:45.722Z,101549.47
2022-11-13T06:28:33.371Z,101544.34
2022-11-13T06:31:21.415Z,101541.72
2022-11-13T06:34:08.443Z,101539.84
2022-11-13T06:36:56.226Z,101532.03
2022-11-13T06:39:42.583Z,101532.78
2022-11-13T06:42:29.087Z,101533.47
2022-11-13T06:45:15.280Z,101533.47
2022-11-13T06:48:01.329Z,101526.50
2022-11-13T06:50:48.667Z,101528.91
2022-11-13T06:53:36.470Z,101527.06
2022-11-13T06:56:23.169Z,101528.69
2022-11-13T06:59:09.982Z,101531.09
2022-11-13T07:01:56.270Z,101525.88
2022-11-13T07:04:42.499Z,101531.88
2022-11-13T07:07:28.792Z,101528.25
2022-11-13T07:10:17.105Z,101536.94
2022-11-13T07:13:03.670Z,101532.50
2022-11-13T07:15:49.614Z,101531.59
2022-11-13T07:18:36.343Z,101526.22
2022-11-13T07:21:23.874Z,101524.38
2022-11-13T07:24:15.581Z,101529.31
2022-11-13T07:27:04.718Z,101527.47
2022-11-13T07:29:50.870Z,101513.38
2022-11-13T07:32:37.126Z,101516.66
2022-11-13T07:35:23.669Z,101513.72
2022-11-13T07:38:10.239Z,101508.13
2022-11-13T07:40:58.984Z,101508.59
2022-11-13T07:43:46.925Z,101510.69
2022-11-13T07:46:33.066Z,101500.63
2022-11-13T07:49:19.317Z,101503.56
2022-11-13T07:52:05.796Z,101508.25
2022-11-13T07:54:52.297Z,101505.91
2022-11-13T07:57:38.391Z,101506.84
2022-11-13T08:00:26.735Z,101507.91
2022-11-13T08:03:15.060Z,101511.44
2022-11-13T08:06:02.848Z,101506.41
2022-11-13T08:08:49.766Z,101515.91
2022-11-13T08:11:36.132Z,101513.16
2022-11-13T08:14:22.276Z,101513.25
2022-11-13T08:17:09.765Z,101501.78
2022-11-13T08:19:56.149Z,101512.00
2022-11-13T08:22:42.265Z,101507.25
2022-11-13T08:25:29.180Z,101510.41
2022-11-13T08:28:15.914Z,101510.97
2022-11-13T08:31:02.339Z,101512.34
2022-11-13T08:33:50.077Z,101513.72
2022-11-13T08:36:36.263Z,101505.53
2022-11-13T08:39:22.414Z,101505.41
2022-11-13T08:42:08.793Z,101500.03
2022-11-13T08:44:54.948Z,101507.88
2022-11-13T08:47:41.082Z,101504.25
2022-11-13T08:50:29.545Z,101493.84
2022-11-13T08:53:15.647Z,101492.94
2022-11-13T08:56:02.877Z,101487.84
2022-11-13T08:58:49.267Z,101482.78
2022-11-13T09:01:35.507Z,101482.94
2022-11-13T09:04:22.330Z,101482.47
2022-11-13T09:07:11.462Z,101487.28
2022-11-13T09:09:57.743Z,101484.19
2022-11-13T09:12:44.207Z,101473.31
2022-11-13T09:15:31.081Z,101465.94
2022-11-13T09:18:17.702Z,101474.31
2022-11-13T09:21:04.409Z,101466.69
2022-11-13T09:23:51.876Z,101466.09
2022-11-13T09:26:38.141Z,101465.63
2022-11-13T09:29:25.944Z,101455.34
2022-11-13T09:32:12.175Z,101455.81
2022-11-13T09:34:58.297Z,101454.38
2022-11-13T09:37:44.522Z,101448.41
2022-11-13T09:40:42.705Z,101446.88
2022-11-13T09:43:39.129Z,101445.41
2022-11-13T09:46:36.564Z,101443.00
2022-11-13T09:49:28.414Z,101441.44
2022-11-13T09:52:19.392Z,101440.00
2022-11-13T09:55:07.101Z,101434.13
2022-11-13T09:58:02.456Z,101427.63
2022-11-13T10:00:49.143Z,101435.03
2022-11-13T10:07:00.811Z,101423.50
2022-11-13T10:09:59.557Z,101416.91
2022-11-13T10:12:49.688Z,101408.25
2022-11-13T10:15:38.028Z,101416.34
2022-11-13T10:18:30.695Z,101408.63
2022-11-13T10:21:28.086Z,101415.06
2022-11-13T10:24:18.371Z,101417.78
2022-11-13T10:27:09.803Z,101416.28
2022-11-13T10:29:55.982Z,101414.69
2022-11-13T10:32:44.720Z,101408.88
2022-11-13T10:35:45.933Z,101405.50
2022-11-13T10:38:39.950Z,101402.09
2022-11-13T10:41:26.385Z,101390.59
2022-11-13T10:44:21.447Z,101389.69
2022-11-13T10:47:15.925Z,101389.84
2022-11-13T10:50:12.191Z,101385.19
2022-11-13T10:52:59.213Z,101371.16
2022-11-13T10:55:47.395Z,101373.69
2022-11-13T10:58:34.027Z,101361.47
2022-11-13T11:01:22.925Z,101362.72
2022-11-13T11:04:15.412Z,101358.69
2022-11-13T11:07:20.028Z,101363.41
2022-11-13T11:10:19.970Z,101350.63
2022-11-13T11:13:12.065Z,101345.88
2022-11-13T11:16:00.876Z,101341.03
2022-11-13T11:18:54.328Z,101330.72
2022-11-13T11:21:43.640Z,101326.69
2022-11-13T11:24:36.225Z,101315.53
2022-11-13T11:27:29.236Z,101312.47
2022-11-13T11:30:21.939Z,101300.50
2022-11-13T11:33:14.425Z,101299.63
2022-11-13T11:36:08.459Z,101301.97
2022-11-13T11:39:01.529Z,101287.69
2022-11-13T11:41:58.414Z,101295.38
2022-11-13T11:45:02.124Z,101286.00
2022-11-13T11:47:48.523Z,101291.91
2022-11-13T11:50:41.621Z,101286.56
2022-11-13T11:53:40.243Z,101279.19
2022-11-13T11:56:33.438Z,101284.56
2022-11-13T11:59:38.585Z,101275.88
2022-11-13T12:03:01.803Z,101266.09
2022-11-13T12:06:04.729Z,101272.41
2022-11-13T12:09:00.617Z,101266.94
2022-11-13T12:11:52.677Z,101261.44
2022-11-13T12:14:50.662Z,101259.38
2022-11-13T12:17:49.989Z,101268.59
2022-11-13T12:20:51.491Z,101261.91
2022-11-13T12:23:53.520Z,101256.25
2022-11-13T12:26:47.648Z,101253.31
2022-11-13T12:29:50.516Z,101243.97
2022-11-13T12:32:53.466Z,101243.06
2022-11-13T12:35:40.648Z,101241.75
2022-11-13T12:38:36.522Z,101237.44
2022-11-13T12:41:31.879Z,101224.50
2022-11-13T12:44:25.422Z,101229.03
2022-11-13T12:47:13.763Z,101222.94
2022-11-13T12:50:02.017Z,101214.34
2022-11-13T12:53:00.181Z,101214.34
2022-11-13T12:56:00.548Z,101216.72
2022-11-13T12:59:28.453Z,101212.06
2022-11-13T13:02:39.896Z,101210.63
2022-11-13T13:05:35.464Z,101206.81
2022-11-13T13:08:46.512Z,101201.06
2022-11-13T13:11:42.676Z,101194.97
2022-11-13T13:14:48.249Z,101184.84
2022-11-13T13:17:36.081Z,101181.84
2022-11-13T13:20:31.594Z,101182.84
2022-11-13T13:23:28.413Z,101173.91
2022-11-13T13:26:20.886Z,101167.44
2022-11-13T13:29:22.772Z,101161.81
2022-11-13T13:32:21.269Z,101165.81
2022-11-13T13:35:16.485Z,101159.34
2022-11-13T13:38:12.454Z,101150.06
2022-11-13T13:41:21.696Z,101144.59
2022-11-13T13:44:22.358Z,101136.31
2022-11-13T13:47:15.856Z,101141.44
2022-11-13T13:50:06.847Z,101135.09
2022-11-13T13:52:57.066Z,101131.59
2022-11-13T13:55:47.816Z,101129.38
2022-11-13T13:58:37.477Z,101127.66
2022-11-13T14:01:28.955Z,101123.50
2022-11-13T14:04:20.546Z,101124.81
2022-11-13T14:07:20.240Z,101126.75
2022-11-13T14:10:15.531Z,101122.38
2022-11-13T14:13:01.793Z,101125.81
2022-11-13T14:15:48.094Z,101114.50
2022-11-13T14:18:35.604Z,101113.75
2022-11-13T14:21:25.062Z,101119.84
2022-11-13T14:24:17.730Z,101119.50
2022-11-13T14:27:07.953Z,101122.06
2022-11-13T14:29:57.017Z,101108.16
2022-11-13T14:32:47.153Z,101116.09
2022-11-13T14:35:33.941Z,101106.19
2022-11-13T14:38:22.835Z,101111.00
2022-11-13T14:41:21.145Z,101108.56
2022-11-13T14:44:12.603Z,101104.28
2022-11-13T14:47:04.874Z,101102.75
2022-11-13T14:49:51.368Z,101105.41
2022-11-13T14:52:37.412Z,101104.72
2022-11-13T14:55:26.202Z,101104.72
2022-11-13T14:58:14.859Z,101098.53
2022-11-13T15:01:14.991Z,101094.00
2022-11-13T15:04:01.244Z,101103.72
2022-11-13T15:06:48.546Z,101101.84
2022-11-13T15:09:35.696Z,101099.28
2022-11-13T15:12:22.260Z,101099.88
2022-11-13T15:15:14.390Z,101101.09
2022-11-13T15:18:02.714Z,101092.69
2022-11-13T15:20:49.196Z,101089.19
2022-11-13T15:23:35.535Z,101092.78
2022-11-13T15:26:21.954Z,101090.09
2022-11-13T15:29:08.866Z,101088.38
2022-11-13T15:31:55.563Z,101083.19
2022-11-13T15:34:43.256Z,101086.72
2022-11-13T15:37:30.040Z,101087.75
2022-11-13T15:40:17.719Z,101088.47
2022-11-13T15:43:04.369Z,101088.19
2022-11-13T15:45:50.333Z,101090.44
2022-11-13T15:48:36.499Z,101085.56
2022-11-13T15:51:27.611Z,101092.06
2022-11-13T15:54:20.991Z,101089.13
2022-11-13T15:57:09.933Z,101091.88
2022-11-13T15:59:56.287Z,101088.97
2022-11-13T16:02:42.406Z,101090.78
2022-11-13T16:05:29.747Z,101084.53
2022-11-13T16:08:17.450Z,101089.50
2022-11-13T16:11:05.643Z,101088.72
2022-11-13T16:13:52.248Z,101074.41
2022-11-13T16:16:40.997Z,101079.31
2022-11-13T16:19:28.409Z,101072.91
2022-11-13T16:22:21.712Z,101068.88
2022-11-13T16:25:12.246Z,101071.38
2022-11-13T16:27:58.688Z,101070.50
2022-11-13T16:30:46.846Z,101073.81
2022-11-13T16:33:32.962Z,101070.47
2022-11-13T16:36:21.257Z,101075.03
2022-11-13T16:39:12.313Z,101067.22
2022-11-13T16:42:00.446Z,101065.81
2022-11-13T16:44:46.767Z,101063.25
2022-11-13T16:47:33.388Z,101065.84
2022-11-13T16:50:23.738Z,101071.13
2022-11-13T16:53:11.527Z,101065.28
2022-11-13T16:56:00.233Z,101058.22
2022-11-13T16:58:47.685Z,101074.97
2022-11-13T17:01:33.917Z,101076.75
2022-11-13T17:04:25.469Z,101075.25
2022-11-13T17:07:13.587Z,101069.28
2022-11-13T17:10:29.008Z,101059.00
2022-11-13T17:13:06.012Z,101065.75
2022-11-13T17:15:53.456Z,101062.94
2022-11-13T17:18:39.977Z,101062.50
2022-11-13T17:21:27.757Z,101054.41
2022-11-13T17:24:15.103Z,101056.59
2022-11-13T17:27:01.317Z,101058.19
2022-11-13T17:29:47.474Z,101057.28
2022-11-13T17:32:35.474Z,101057.34
2022-11-13T17:35:21.899Z,101051.06
2022-11-13T17:38:07.970Z,101063.16
2022-11-13T17:40:53.964Z,101064.91
2022-11-13T17:43:41.375Z,101058.81
2022-11-13T17:46:27.487Z,101049.19
2022-11-13T17:49:16.271Z,101057.66
2022-11-13T17:52:02.817Z,101058.97
2022-11-13T17:54:48.790Z,101065.69
2022-11-13T17:57:34.987Z,101056.50
2022-11-13T18:00:22.640Z,101060.47
2022-11-13T18:03:11.278Z,101062.00
2022-11-13T18:05:59.139Z,101065.13
2022-11-13T18:08:46.787Z,101070.88
2022-11-13T18:11:33.998Z,101060.81
2022-11-13T18:14:20.185Z,101071.13
2022-11-13T18:17:06.283Z,101072.41
2022-11-13T18:19:57.312Z,101068.59
2022-11-13T18:22:49.434Z,101060.34
2022-11-13T18:25:39.409Z,101050.22
2022-11-13T18:28:26.114Z,101054.97
2022-11-13T18:31:18.751Z,101045.91
2022-11-13T18:34:07.224Z,101052.56
2022-11-13T18:36:53.562Z,101050.41
2022-11-13T18:39:41.299Z,101048.25
2022-11-13T18:42:27.556Z,101039.91
2022-11-13T18:45:16.202Z,101048.97
2022-11-13T18:48:02.465Z,101045.84
2022-11-13T18:50:56.227Z,101048.00
2022-11-13T18:53:43.572Z,101049.25
2022-11-13T18:56:32.394Z,101047.84
2022-11-13T18:59:18.683Z,101051.63
2022-11-13T19:02:05.374Z,101059.00
2022-11-13T19:04:51.677Z,101055.66
2022-11-13T19:07:37.726Z,101056.94
2022-11-13T19:10:23.928Z,101064.22
2022-11-13T19:13:11.429Z,101061.91
2022-11-13T19:15:57.488Z,101052.38
2022-11-13T19:18:45.911Z,101056.06
2022-11-13T19:21:34.242Z,101060.47
2022-11-13T19:24:20.690Z,101039.84
2022-11-13T19:27:07.220Z,101036.38
2022-11-13T19:29:54.875Z,101036.63
2022-11-13T19:32:41.065Z,101034.22
2022-11-13T19:35:27.495Z,101026.72
2022-11-13T19:38:13.706Z,101028.69
2022-11-13T19:40:59.866Z,101025.38
2022-11-13T19:43:46.272Z,101019.41
2022-11-13T19:46:34.156Z,101017.00
2022-11-13T19:49:20.554Z,101014.72
2022-11-13T19:52:06.750Z,101011.47
2022-11-13T19:54:52.921Z,101004.72
2022-11-13T19:57:44.949Z,101005.66
2022-11-13T20:00:32.481Z,101008.47
2022-11-13T20:03:20.082Z,101004.44
2022-11-13T20:06:07.085Z,101000.22
2022-11-13T20:08:53.507Z,100996.78
2022-11-13T20:11:39.629Z,100994.16
2022-11-13T20:14:26.139Z,100993.31
2022-11-13T20:17:12.510Z,100982.84
2022-11-13T20:20:01.006Z,100982.75
2022-11-13T20:22:47.353Z,100981.81
2022-11-13T20:25:33.384Z,100981.81
2022-11-13T20:28:19.935Z,100975.63
2022-11-13T20:31:08.484Z,100975.53
2022-11-13T20:33:56.754Z,100969.34
2022-11-13T20:36:44.536Z,100974.44
2022-11-13T20:39:31.022Z,100972.75
2022-11-13T20:42:17.276Z,100968.25
2022-11-13T20:45:03.421Z,100961.25
2022-11-13T20:47:49.392Z,100961.13
2022-11-13T20:50:36.580Z,100953.19
2022-11-13T20:53:24.005Z,100947.69
2022-11-13T20:56:10.845Z,100948.44
2022-11-13T20:58:57.176Z,100944.97
2022-11-13T21:01:43.268Z,100953.56
2022-11-13T21:04:29.531Z,100953.78
2022-11-13T21:07:15.821Z,100956.38
2022-11-13T21:10:04.452Z,100961.63
2022-11-13T21:12:51.033Z,100960.94
2022-11-13T21:15:38.678Z,100962.56
2022-11-13T21:18:25.130Z,100945.31
2022-11-13T21:21:13.703Z,100940.19
2022-11-13T21:24:00.191Z,100944.69
2022-11-13T21:26:50.375Z,100927.66
2022-11-13T21:29:36.402Z,100921.94
2022-11-13T21:32:22.501Z,100918.59
2022-11-13T21:35:08.959Z,100924.03
2022-11-13T21:37:55.090Z,100917.25
2022-11-13T21:40:41.220Z,100916.88
2022-11-13T21:43:28.971Z,100918.97
2022-11-13T21:46:15.453Z,100915.75
2022-11-13T21:49:03.566Z,100912.75
2022-11-13T21:51:49.766Z,100907.09
2022-11-13T21:54:35.932Z,100905.78
2022-11-13T21:57:22.687Z,100904.66
2022-11-13T22:00:11.688Z,100898.09
2022-11-13T22:02:57.900Z,100887.97
2022-11-13T22:05:44.462Z,100891.88
2022-11-13T22:08:31.179Z,100895.41
2022-11-13T22:11:17.929Z,100890.41
2022-11-13T22:14:04.198Z,100888.81
2022-11-13T22:16:51.754Z,100881.22
2022-11-13T22:19:37.953Z,100878.91
2022-11-13T22:22:24.051Z,100879.16
2022-11-13T22:25:10.785Z,100875.78
2022-11-13T22:27:56.875Z,100868.28
2022-11-13T22:30:46.177Z,100865.03
2022-11-13T22:33:35.225Z,100855.03
2022-11-13T22:36:23.513Z,100861.53
2022-11-13T22:39:09.813Z,100862.56
2022-11-13T22:41:56.014Z,100863.75
2022-11-13T22:44:55.446Z,100856.19
2022-11-13T22:47:43.070Z,100854.00
2022-11-13T22:50:30.583Z,100845.69
2022-11-13T22:53:16.729Z,100843.25
2022-11-13T22:56:04.491Z,100841.81
2022-11-13T22:58:51.227Z,100839.41
2022-11-13T23:01:39.289Z,100828.34
2022-11-13T23:04:25.510Z,100829.28
2022-11-13T23:07:13.045Z,100825.19
2022-11-13T23:09:59.659Z,100824.59
2022-11-13T23:12:45.744Z,100808.28
2022-11-13T23:15:32.318Z,100808.19
2022-11-13T23:18:18.380Z,100802.88
2022-11-13T23:21:05.614Z,100806.31
2022-11-13T23:23:53.927Z,100793.34
2022-11-13T23:26:40.365Z,100790.75
2022-11-13T23:29:26.857Z,100789.06
2022-11-13T23:32:13.134Z,100786.69
2022-11-13T23:35:00.084Z,100772.06
2022-11-13T23:37:46.302Z,100781.78
2022-11-13T23:40:33.859Z,100778.41
2022-11-13T23:43:20.221Z,100771.75
2022-11-13T23:46:06.781Z,100782.31
2022-11-13T23:48:53.297Z,100774.69
2022-11-13T23:51:39.213Z,100773.03
2022-11-13T23:54:25.307Z,100778.34
2022-11-13T23:57:13.155Z,100775.00
2022-11-13T23:59:59.341Z,100768.94
